sensor_id;sensor_type;location;lat;lon;timestamp;P1;durP1;ratioP1;P2;durP2;ratioP2
1054;SDS011;516;51.482;7.120;2023-07-24T00:05:38;5.03;;;3.67;;
1054;SDS011;516;51.482;7.120;2023-07-24T00:11:26;15.20;;;4.10;;
1054;SDS011;516;51.482;7.120;2023-07-24T00:17:13;6.57;;;4.80;;
1054;SDS011;516;51.482;7.120;2023-07-24T00:26:23;8.10;;;4.13;;
1054;SDS011;516;51.482;7.120;2023-07-24T00:32:11;5.60;;;3.53;;
1054;SDS011;516;51.482;7.120;2023-07-24T00:37:59;6.60;;;4.43;;
1054;SDS011;516;51.482;7.120;2023-07-24T00:43:46;7.90;;;4.50;;
1054;SDS011;516;51.482;7.120;2023-07-24T00:49:34;7.20;;;4.90;;
1054;SDS011;516;51.482;7.120;2023-07-24T00:55:24;7.60;;;4.30;;
1054;SDS011;516;51.482;7.120;2023-07-24T01:01:12;7.53;;;5.17;;
1054;SDS011;516;51.482;7.120;2023-07-24T01:07:01;6.13;;;5.17;;
1054;SDS011;516;51.482;7.120;2023-07-24T01:19:33;6.63;;;4.93;;
1054;SDS011;516;51.482;7.120;2023-07-24T01:29:22;5.90;;;4.70;;
1054;SDS011;516;51.482;7.120;2023-07-24T01:35:10;6.10;;;5.20;;
1054;SDS011;516;51.482;7.120;2023-07-24T01:41:00;6.00;;;4.97;;
1054;SDS011;516;51.482;7.120;2023-07-24T01:46:49;6.23;;;5.03;;
1054;SDS011;516;51.482;7.120;2023-07-24T01:52:37;6.47;;;4.67;;
1054;SDS011;516;51.482;7.120;2023-07-24T01:58:24;9.27;;;4.27;;
1054;SDS011;516;51.482;7.120;2023-07-24T02:04:12;10.10;;;3.97;;
1054;SDS011;516;51.482;7.120;2023-07-24T02:10:00;6.30;;;4.73;;
1054;SDS011;516;51.482;7.120;2023-07-24T02:15:48;10.30;;;4.80;;
1054;SDS011;516;51.482;7.120;2023-07-24T02:21:37;8.77;;;4.63;;
1054;SDS011;516;51.482;7.120;2023-07-24T02:30:47;6.93;;;4.90;;
1054;SDS011;516;51.482;7.120;2023-07-24T02:36:35;8.50;;;5.70;;
1054;SDS011;516;51.482;7.120;2023-07-24T02:42:23;8.23;;;5.07;;
1054;SDS011;516;51.482;7.120;2023-07-24T02:48:11;10.77;;;6.03;;
1054;SDS011;516;51.482;7.120;2023-07-24T02:53:59;10.27;;;6.73;;
1054;SDS011;516;51.482;7.120;2023-07-24T02:59:47;7.67;;;5.47;;
1054;SDS011;516;51.482;7.120;2023-07-24T03:05:35;8.30;;;5.43;;
1054;SDS011;516;51.482;7.120;2023-07-24T03:11:22;10.80;;;6.10;;
1054;SDS011;516;51.482;7.120;2023-07-24T03:17:10;6.93;;;5.23;;
1054;SDS011;516;51.482;7.120;2023-07-24T03:22:58;13.83;;;7.30;;
1054;SDS011;516;51.482;7.120;2023-07-24T03:28:37;7.63;;;4.57;;
1054;SDS011;516;51.482;7.120;2023-07-24T03:34:25;9.30;;;5.03;;
1054;SDS011;516;51.482;7.120;2023-07-24T03:40:13;7.23;;;5.60;;
1054;SDS011;516;51.482;7.120;2023-07-24T03:46:00;10.67;;;5.27;;
1054;SDS011;516;51.482;7.120;2023-07-24T03:51:48;5.90;;;4.60;;
1054;SDS011;516;51.482;7.120;2023-07-24T03:57:36;12.20;;;6.37;;
1054;SDS011;516;51.482;7.120;2023-07-24T04:03:24;8.00;;;6.00;;
1054;SDS011;516;51.482;7.120;2023-07-24T04:09:11;9.00;;;6.50;;
1054;SDS011;516;51.482;7.120;2023-07-24T04:15:01;8.57;;;5.63;;
1054;SDS011;516;51.482;7.120;2023-07-24T04:20:50;7.60;;;5.43;;
1054;SDS011;516;51.482;7.120;2023-07-24T04:33:03;8.80;;;6.03;;
1054;SDS011;516;51.482;7.120;2023-07-24T04:38:51;7.77;;;5.80;;
1054;SDS011;516;51.482;7.120;2023-07-24T04:44:39;11.60;;;7.27;;
1054;SDS011;516;51.482;7.120;2023-07-24T04:50:27;7.07;;;5.70;;
1054;SDS011;516;51.482;7.120;2023-07-24T04:56:14;5.30;;;4.70;;
1054;SDS011;516;51.482;7.120;2023-07-24T05:02:02;11.57;;;6.73;;
1054;SDS011;516;51.482;7.120;2023-07-24T05:07:50;9.63;;;5.63;;
1054;SDS011;516;51.482;7.120;2023-07-24T05:13:38;9.13;;;5.23;;
1054;SDS011;516;51.482;7.120;2023-07-24T05:19:25;9.67;;;5.77;;
1054;SDS011;516;51.482;7.120;2023-07-24T05:25:13;16.43;;;5.60;;
1054;SDS011;516;51.482;7.120;2023-07-24T05:31:01;8.70;;;5.40;;
1054;SDS011;516;51.482;7.120;2023-07-24T05:40:05;8.10;;;5.00;;
1054;SDS011;516;51.482;7.120;2023-07-24T05:45:54;7.83;;;5.80;;
1054;SDS011;516;51.482;7.120;2023-07-24T05:51:42;9.27;;;5.33;;
1054;SDS011;516;51.482;7.120;2023-07-24T05:57:30;9.70;;;5.60;;
1054;SDS011;516;51.482;7.120;2023-07-24T06:03:17;6.63;;;4.63;;
1054;SDS011;516;51.482;7.120;2023-07-24T06:09:05;10.20;;;5.40;;
1054;SDS011;516;51.482;7.120;2023-07-24T06:14:53;6.73;;;5.20;;
1054;SDS011;516;51.482;7.120;2023-07-24T06:20:40;6.23;;;4.80;;
1054;SDS011;516;51.482;7.120;2023-07-24T06:26:28;6.80;;;4.87;;
1054;SDS011;516;51.482;7.120;2023-07-24T06:32:27;7.90;;;4.90;;
1054;SDS011;516;51.482;7.120;2023-07-24T06:38:15;8.70;;;5.50;;
1054;SDS011;516;51.482;7.120;2023-07-24T06:44:03;5.20;;;4.70;;
1054;SDS011;516;51.482;7.120;2023-07-24T06:49:50;7.37;;;5.77;;
1054;SDS011;516;51.482;7.120;2023-07-24T06:55:37;6.63;;;5.70;;
1054;SDS011;516;51.482;7.120;2023-07-24T07:01:24;6.70;;;4.53;;
1054;SDS011;516;51.482;7.120;2023-07-24T07:07:11;6.47;;;5.57;;
1054;SDS011;516;51.482;7.120;2023-07-24T07:12:59;6.73;;;6.07;;
1054;SDS011;516;51.482;7.120;2023-07-24T07:18:47;7.00;;;5.17;;
1054;SDS011;516;51.482;7.120;2023-07-24T07:24:37;7.00;;;5.17;;
1054;SDS011;516;51.482;7.120;2023-07-24T07:40:06;8.47;;;5.40;;
1054;SDS011;516;51.482;7.120;2023-07-24T07:45:54;7.50;;;4.83;;
1054;SDS011;516;51.482;7.120;2023-07-24T07:51:44;4.17;;;3.73;;
1054;SDS011;516;51.482;7.120;2023-07-24T07:57:35;4.63;;;3.90;;
1054;SDS011;516;51.482;7.120;2023-07-24T08:03:23;10.80;;;4.80;;
1054;SDS011;516;51.482;7.120;2023-07-24T08:09:11;7.23;;;4.50;;
1054;SDS011;516;51.482;7.120;2023-07-24T08:14:58;5.27;;;4.60;;
1054;SDS011;516;51.482;7.120;2023-07-24T08:20:46;4.50;;;4.10;;
1054;SDS011;516;51.482;7.120;2023-07-24T08:26:33;5.80;;;3.83;;
1054;SDS011;516;51.482;7.120;2023-07-24T08:29:14;5.77;;;4.10;;
1054;SDS011;516;51.482;7.120;2023-07-24T08:41:39;6.13;;;5.17;;
1054;SDS011;516;51.482;7.120;2023-07-24T08:47:27;7.60;;;4.90;;
1054;SDS011;516;51.482;7.120;2023-07-24T08:53:15;6.40;;;4.33;;
1054;SDS011;516;51.482;7.120;2023-07-24T08:59:05;6.53;;;5.17;;
1054;SDS011;516;51.482;7.120;2023-07-24T09:04:52;4.17;;;3.77;;
1054;SDS011;516;51.482;7.120;2023-07-24T09:10:25;3.60;;;3.30;;
1054;SDS011;516;51.482;7.120;2023-07-24T09:16:26;4.17;;;3.17;;
1054;SDS011;516;51.482;7.120;2023-07-24T09:22:14;3.50;;;3.20;;
1054;SDS011;516;51.482;7.120;2023-07-24T09:28:21;4.00;;;3.60;;
1054;SDS011;516;51.482;7.120;2023-07-24T09:34:46;3.83;;;3.37;;
1054;SDS011;516;51.482;7.120;2023-07-24T09:40:39;4.40;;;3.00;;
1054;SDS011;516;51.482;7.120;2023-07-24T09:46:30;4.10;;;3.53;;
1054;SDS011;516;51.482;7.120;2023-07-24T09:52:19;4.70;;;3.07;;
1054;SDS011;516;51.482;7.120;2023-07-24T09:58:08;3.50;;;3.20;;
1054;SDS011;516;51.482;7.120;2023-07-24T10:03:56;4.00;;;3.47;;
1054;SDS011;516;51.482;7.120;2023-07-24T10:09:45;5.17;;;3.37;;
1054;SDS011;516;51.482;7.120;2023-07-24T10:15:33;2.40;;;2.17;;
1054;SDS011;516;51.482;7.120;2023-07-24T10:21:26;5.20;;;3.83;;
1054;SDS011;516;51.482;7.120;2023-07-24T10:27:15;4.23;;;3.10;;
1054;SDS011;516;51.482;7.120;2023-07-24T10:36:24;4.87;;;3.47;;
1054;SDS011;516;51.482;7.120;2023-07-24T10:42:12;4.17;;;3.57;;
1054;SDS011;516;51.482;7.120;2023-07-24T10:48:00;3.83;;;3.43;;
1054;SDS011;516;51.482;7.120;2023-07-24T10:53:48;4.13;;;3.67;;
1054;SDS011;516;51.482;7.120;2023-07-24T10:59:37;5.03;;;4.63;;
1054;SDS011;516;51.482;7.120;2023-07-24T11:05:26;4.40;;;4.00;;
1054;SDS011;516;51.482;7.120;2023-07-24T11:11:14;6.53;;;4.63;;
1054;SDS011;516;51.482;7.120;2023-07-24T11:17:02;4.90;;;4.10;;
1054;SDS011;516;51.482;7.120;2023-07-24T11:22:50;4.57;;;3.90;;
1054;SDS011;516;51.482;7.120;2023-07-24T11:28:39;5.90;;;4.63;;
1054;SDS011;516;51.482;7.120;2023-07-24T11:37:51;7.30;;;4.70;;
1054;SDS011;516;51.482;7.120;2023-07-24T11:43:44;4.20;;;3.10;;
1054;SDS011;516;51.482;7.120;2023-07-24T11:49:33;9.87;;;6.10;;
1054;SDS011;516;51.482;7.120;2023-07-24T11:55:30;4.00;;;2.70;;
1054;SDS011;516;51.482;7.120;2023-07-24T12:01:55;16.53;;;4.00;;
1054;SDS011;516;51.482;7.120;2023-07-24T12:07:42;3.40;;;2.90;;
1054;SDS011;516;51.482;7.120;2023-07-24T12:13:33;5.00;;;2.30;;
1054;SDS011;516;51.482;7.120;2023-07-24T12:19:20;5.73;;;2.13;;
1054;SDS011;516;51.482;7.120;2023-07-24T12:25:08;4.77;;;2.47;;
1054;SDS011;516;51.482;7.120;2023-07-24T12:30:55;2.60;;;1.93;;
1054;SDS011;516;51.482;7.120;2023-07-24T12:40:05;3.97;;;2.03;;
1054;SDS011;516;51.482;7.120;2023-07-24T12:45:53;5.57;;;2.50;;
1054;SDS011;516;51.482;7.120;2023-07-24T12:51:41;3.80;;;3.00;;
1054;SDS011;516;51.482;7.120;2023-07-24T12:57:29;2.60;;;2.00;;
1054;SDS011;516;51.482;7.120;2023-07-24T13:03:17;2.27;;;1.80;;
1054;SDS011;516;51.482;7.120;2023-07-24T13:09:05;2.43;;;2.23;;
1054;SDS011;516;51.482;7.120;2023-07-24T13:14:52;6.93;;;3.10;;
1054;SDS011;516;51.482;7.120;2023-07-24T13:20:40;3.80;;;3.50;;
1054;SDS011;516;51.482;7.120;2023-07-24T13:26:28;6.77;;;4.90;;
1054;SDS011;516;51.482;7.120;2023-07-24T13:32:15;4.13;;;3.73;;
1054;SDS011;516;51.482;7.120;2023-07-24T13:38:00;3.90;;;3.60;;
1054;SDS011;516;51.482;7.120;2023-07-24T13:43:48;4.63;;;4.33;;
1054;SDS011;516;51.482;7.120;2023-07-24T13:49:35;4.07;;;3.77;;
1054;SDS011;516;51.482;7.120;2023-07-24T13:55:23;4.47;;;4.07;;
1054;SDS011;516;51.482;7.120;2023-07-24T14:01:11;4.60;;;4.23;;
1054;SDS011;516;51.482;7.120;2023-07-24T14:06:59;4.93;;;4.53;;
1054;SDS011;516;51.482;7.120;2023-07-24T14:12:46;5.23;;;4.73;;
1054;SDS011;516;51.482;7.120;2023-07-24T14:18:34;4.67;;;4.27;;
1054;SDS011;516;51.482;7.120;2023-07-24T14:24:22;4.53;;;4.13;;
1054;SDS011;516;51.482;7.120;2023-07-24T14:30:10;5.10;;;4.70;;
1054;SDS011;516;51.482;7.120;2023-07-24T14:45:52;6.07;;;3.80;;
1054;SDS011;516;51.482;7.120;2023-07-24T14:51:39;5.03;;;4.23;;
1054;SDS011;516;51.482;7.120;2023-07-24T14:57:27;4.80;;;4.00;;
1054;SDS011;516;51.482;7.120;2023-07-24T15:03:15;3.80;;;3.50;;
1054;SDS011;516;51.482;7.120;2023-07-24T15:09:02;6.37;;;4.03;;
1054;SDS011;516;51.482;7.120;2023-07-24T15:14:50;11.33;;;4.17;;
1054;SDS011;516;51.482;7.120;2023-07-24T15:20:22;4.90;;;4.47;;
1054;SDS011;516;51.482;7.120;2023-07-24T15:26:10;5.93;;;3.93;;
1054;SDS011;516;51.482;7.120;2023-07-24T15:31:57;3.80;;;3.20;;
1054;SDS011;516;51.482;7.120;2023-07-24T15:37:45;3.60;;;3.00;;
1054;SDS011;516;51.482;7.120;2023-07-24T15:43:32;5.23;;;3.60;;
1054;SDS011;516;51.482;7.120;2023-07-24T15:49:20;3.40;;;3.10;;
1054;SDS011;516;51.482;7.120;2023-07-24T15:55:08;3.93;;;3.43;;
1054;SDS011;516;51.482;7.120;2023-07-24T16:00:56;5.10;;;4.70;;
1054;SDS011;516;51.482;7.120;2023-07-24T16:06:44;4.70;;;4.23;;
1054;SDS011;516;51.482;7.120;2023-07-24T16:12:31;6.43;;;5.80;;
1054;SDS011;516;51.482;7.120;2023-07-24T16:18:21;5.63;;;5.00;;
1054;SDS011;516;51.482;7.120;2023-07-24T16:24:10;7.33;;;6.63;;
1054;SDS011;516;51.482;7.120;2023-07-24T16:29:58;6.37;;;5.87;;
1054;SDS011;516;51.482;7.120;2023-07-24T16:42:30;8.10;;;7.30;;
1054;SDS011;516;51.482;7.120;2023-07-24T16:48:18;9.13;;;6.60;;
1054;SDS011;516;51.482;7.120;2023-07-24T16:54:06;8.20;;;7.50;;
1054;SDS011;516;51.482;7.120;2023-07-24T16:59:54;7.30;;;6.60;;
1054;SDS011;516;51.482;7.120;2023-07-24T17:05:41;6.60;;;6.00;;
1054;SDS011;516;51.482;7.120;2023-07-24T17:11:29;6.03;;;5.53;;
1054;SDS011;516;51.482;7.120;2023-07-24T17:17:17;6.67;;;6.07;;
1054;SDS011;516;51.482;7.120;2023-07-24T17:23:05;8.03;;;6.50;;
1054;SDS011;516;51.482;7.120;2023-07-24T17:28:52;7.13;;;6.53;;
1054;SDS011;516;51.482;7.120;2023-07-24T17:34:40;9.07;;;8.13;;
1054;SDS011;516;51.482;7.120;2023-07-24T17:40:28;7.17;;;6.57;;
1054;SDS011;516;51.482;7.120;2023-07-24T17:46:16;6.17;;;5.60;;
1054;SDS011;516;51.482;7.120;2023-07-24T17:52:04;6.57;;;6.07;;
1054;SDS011;516;51.482;7.120;2023-07-24T17:57:52;6.70;;;6.10;;
1054;SDS011;516;51.482;7.120;2023-07-24T18:03:40;7.67;;;6.87;;
1054;SDS011;516;51.482;7.120;2023-07-24T18:09:28;6.47;;;5.93;;
1054;SDS011;516;51.482;7.120;2023-07-24T18:15:16;7.73;;;7.13;;
1054;SDS011;516;51.482;7.120;2023-07-24T18:21:03;7.57;;;6.80;;
1054;SDS011;516;51.482;7.120;2023-07-24T18:26:52;10.70;;;8.40;;
1054;SDS011;516;51.482;7.120;2023-07-24T18:32:21;7.13;;;6.43;;
1054;SDS011;516;51.482;7.120;2023-07-24T18:37:52;7.43;;;6.73;;
1054;SDS011;516;51.482;7.120;2023-07-24T18:43:22;7.40;;;5.43;;
1054;SDS011;516;51.482;7.120;2023-07-24T18:48:52;6.90;;;6.20;;
1054;SDS011;516;51.482;7.120;2023-07-24T18:54:22;8.50;;;6.20;;
1054;SDS011;516;51.482;7.120;2023-07-24T18:59:51;8.30;;;6.30;;
1054;SDS011;516;51.482;7.120;2023-07-24T19:05:21;5.33;;;4.83;;
1054;SDS011;516;51.482;7.120;2023-07-24T19:10:52;6.07;;;5.17;;
1054;SDS011;516;51.482;7.120;2023-07-24T19:16:22;10.60;;;6.87;;
1054;SDS011;516;51.482;7.120;2023-07-24T19:21:52;9.93;;;7.60;;
1054;SDS011;516;51.482;7.120;2023-07-24T19:27:22;8.07;;;6.80;;
1054;SDS011;516;51.482;7.120;2023-07-24T19:32:52;8.23;;;6.77;;
1054;SDS011;516;51.482;7.120;2023-07-24T19:38:40;8.93;;;7.43;;
1054;SDS011;516;51.482;7.120;2023-07-24T19:44:09;11.93;;;7.23;;
1054;SDS011;516;51.482;7.120;2023-07-24T19:49:39;9.87;;;7.70;;
1054;SDS011;516;51.482;7.120;2023-07-24T19:55:08;10.40;;;9.23;;
1054;SDS011;516;51.482;7.120;2023-07-24T20:00:37;13.10;;;11.80;;
1054;SDS011;516;51.482;7.120;2023-07-24T20:06:25;23.07;;;17.00;;
1054;SDS011;516;51.482;7.120;2023-07-24T20:12:12;16.17;;;14.57;;
1054;SDS011;516;51.482;7.120;2023-07-24T20:17:59;15.93;;;14.40;;
1054;SDS011;516;51.482;7.120;2023-07-24T20:23:47;14.83;;;12.80;;
1054;SDS011;516;51.482;7.120;2023-07-24T20:29:16;13.60;;;12.20;;
1054;SDS011;516;51.482;7.120;2023-07-24T20:34:46;9.57;;;8.57;;
1054;SDS011;516;51.482;7.120;2023-07-24T20:40:34;12.07;;;9.00;;
1054;SDS011;516;51.482;7.120;2023-07-24T20:46:22;11.37;;;8.60;;
1054;SDS011;516;51.482;7.120;2023-07-24T20:52:10;11.97;;;10.60;;
1054;SDS011;516;51.482;7.120;2023-07-24T20:57:57;11.17;;;10.00;;
1054;SDS011;516;51.482;7.120;2023-07-24T21:03:45;16.03;;;9.47;;
1054;SDS011;516;51.482;7.120;2023-07-24T21:09:33;11.50;;;8.63;;
1054;SDS011;516;51.482;7.120;2023-07-24T21:15:21;19.73;;;9.17;;
1054;SDS011;516;51.482;7.120;2023-07-24T21:21:09;8.97;;;7.10;;
1054;SDS011;516;51.482;7.120;2023-07-24T21:26:56;9.33;;;5.83;;
1054;SDS011;516;51.482;7.120;2023-07-24T21:32:26;7.90;;;5.80;;
1054;SDS011;516;51.482;7.120;2023-07-24T21:37:55;9.63;;;5.60;;
1054;SDS011;516;51.482;7.120;2023-07-24T21:43:43;6.00;;;5.33;;
1054;SDS011;516;51.482;7.120;2023-07-24T21:49:31;8.77;;;4.60;;
1054;SDS011;516;51.482;7.120;2023-07-24T21:55:18;8.50;;;5.30;;
1054;SDS011;516;51.482;7.120;2023-07-24T22:01:06;7.83;;;4.40;;
1054;SDS011;516;51.482;7.120;2023-07-24T22:06:35;6.73;;;4.77;;
1054;SDS011;516;51.482;7.120;2023-07-24T22:12:23;6.40;;;4.67;;
1054;SDS011;516;51.482;7.120;2023-07-24T22:18:11;6.33;;;4.00;;
1054;SDS011;516;51.482;7.120;2023-07-24T22:23:58;5.40;;;4.10;;
1054;SDS011;516;51.482;7.120;2023-07-24T22:29:28;9.60;;;4.60;;
1054;SDS011;516;51.482;7.120;2023-07-24T22:35:15;8.87;;;4.93;;
1054;SDS011;516;51.482;7.120;2023-07-24T22:41:10;4.70;;;4.30;;
1054;SDS011;516;51.482;7.120;2023-07-24T22:50:14;11.40;;;4.80;;
1054;SDS011;516;51.482;7.120;2023-07-24T22:56:05;5.07;;;4.67;;
1054;SDS011;516;51.482;7.120;2023-07-24T23:01:55;12.30;;;4.67;;
1054;SDS011;516;51.482;7.120;2023-07-24T23:07:44;6.97;;;4.37;;
1054;SDS011;516;51.482;7.120;2023-07-24T23:13:32;7.90;;;4.50;;
1054;SDS011;516;51.482;7.120;2023-07-24T23:19:19;6.50;;;4.70;;
1054;SDS011;516;51.482;7.120;2023-07-24T23:25:07;9.67;;;5.43;;
1054;SDS011;516;51.482;7.120;2023-07-24T23:30:55;7.23;;;5.40;;
1054;SDS011;516;51.482;7.120;2023-07-24T23:36:43;9.80;;;5.67;;
1054;SDS011;516;51.482;7.120;2023-07-24T23:42:22;7.93;;;6.30;;
1054;SDS011;516;51.482;7.120;2023-07-24T23:48:10;9.97;;;5.87;;
1054;SDS011;516;51.482;7.120;2023-07-24T23:53:57;9.00;;;5.97;;
1054;SDS011;516;51.482;7.120;2023-07-24T23:59:45;9.20;;;6.20;;
